.
WxDataArchive / Data Records for 2006-10-08
2006-10-07 October 2006 2006-10-09

Data Records for Sunday, 08 October 2006

Time	Temp	Chill	HIndex	Humid	Dewpt	 Wind 	HiWind	WindDir	Rain 	Barom 
-----	----	-----	------	-----	-----	------	------	-------	-----	----- 
00:00	49.1	49.1	49.1	82	43.8	0	0	---	0.00	30.261 
00:05	48.8	48.8	48.8	82	43.6	0	0	---	0.00	30.261 
00:10	48.3	48.3	48.3	83	43.4	0	0	---	0.00	30.261 
00:15	48.0	48.0	48.0	84	43.4	0	2	90	0.00	30.260 
00:20	48.0	48.0	48.0	84	43.4	0	2	90	0.00	30.260 
00:25	48.0	48.0	48.0	84	43.4	0	2	90	0.00	30.260 
00:30	48.0	48.0	48.0	84	43.4	0	2	90	0.00	30.259 
00:35	48.0	48.0	48.0	84	43.4	0	1	90	0.00	30.259 
00:40	47.9	47.9	47.9	84	43.3	0	1	90	0.00	30.259 
00:45	47.7	47.7	47.7	84	43.1	0	1	90	0.00	30.258 
00:50	47.3	47.3	47.3	85	43.0	0	0	---	0.00	30.258 
00:55	46.8	46.8	46.8	85	42.5	0	0	---	0.00	30.258 
01:00	46.4	46.4	46.4	86	42.4	0	0	---	0.00	30.260 
01:05	46.0	46.0	46.0	87	42.4	0	0	---	0.00	30.260 
01:10	45.7	45.7	45.7	87	42.1	0	0	---	0.00	30.260 
01:15	45.2	45.2	45.2	88	41.9	0	0	---	0.00	30.256 
01:20	44.9	44.9	44.9	88	41.6	0	0	---	0.00	30.256 
01:25	44.6	44.6	44.6	88	41.3	0	0	---	0.00	30.256 
01:30	44.3	44.3	44.3	89	41.3	0	0	---	0.00	30.256 
01:35	44.1	44.1	44.1	90	41.4	0	0	---	0.00	30.256 
01:40	43.8	43.8	43.8	90	41.1	0	0	---	0.00	30.256 
01:45	43.6	43.6	43.6	90	40.9	0	0	---	0.00	30.254 
01:50	43.3	43.3	43.3	90	40.6	0	0	---	0.00	30.254 
01:55	43.2	43.2	43.2	90	40.5	0	0	---	0.00	30.254 
02:00	42.9	42.9	42.9	91	40.5	0	0	---	0.00	30.256 
02:05	42.8	42.8	42.8	91	40.4	0	0	---	0.00	30.256 
02:10	42.5	42.5	42.5	91	40.1	0	0	---	0.00	30.256 
02:15	42.3	42.3	42.3	91	39.9	0	0	---	0.00	30.252 
02:20	42.2	42.2	42.2	92	40.0	0	0	---	0.00	30.252 
02:25	42.1	42.1	42.1	92	39.9	0	0	---	0.00	30.252 
02:30	41.9	41.9	41.9	92	39.7	0	0	---	0.00	30.249 
02:35	41.8	41.8	41.8	92	39.6	0	0	---	0.00	30.249 
02:40	41.6	41.6	41.6	92	39.5	0	0	---	0.00	30.249 
02:45	41.5	41.5	41.5	93	39.6	0	0	---	0.00	30.246 
02:50	41.3	41.3	41.3	93	39.4	0	0	---	0.00	30.246 
02:55	41.2	41.2	41.2	93	39.3	0	0	---	0.00	30.246 
03:00	41.2	41.2	41.2	93	39.3	0	0	---	0.00	30.246 
03:05	41.1	41.1	41.1	93	39.2	0	0	---	0.00	30.246 
03:10	40.9	40.9	40.9	93	39.0	0	0	---	0.00	30.246 
03:15	40.8	40.8	40.8	93	38.9	0	0	---	0.00	30.245 
03:20	40.6	40.6	40.6	93	38.7	0	0	---	0.00	30.245 
03:25	40.6	40.6	40.6	93	38.7	0	0	---	0.00	30.245 
03:30	40.5	40.5	40.5	93	38.6	0	0	---	0.00	30.244 
03:35	40.3	40.3	40.3	93	38.4	0	0	---	0.00	30.244 
03:40	40.2	40.2	40.2	94	38.6	0	0	---	0.00	30.244 
03:45	40.2	40.2	40.2	94	38.6	0	0	---	0.00	30.244 
03:50	40.1	40.1	40.1	94	38.5	0	0	---	0.00	30.244 
03:55	40.1	40.1	40.1	94	38.5	0	0	---	0.00	30.244 
04:00	39.9	39.9	39.9	94	38.3	0	0	---	0.00	30.238 
04:05	39.8	39.8	39.8	94	38.2	0	0	---	0.00	30.238 
04:10	39.6	39.6	39.6	94	38.0	0	0	---	0.00	30.238 
04:15	39.5	39.5	39.5	94	37.9	0	0	---	0.00	30.236 
04:20	39.5	39.5	39.5	94	37.9	0	0	---	0.00	30.236 
04:25	39.3	39.3	39.3	94	37.7	0	0	---	0.00	30.236 
04:30	39.3	39.3	39.3	94	37.7	0	0	---	0.00	30.234 
04:35	39.2	39.2	39.2	94	37.6	0	0	---	0.00	30.234 
04:40	39.2	39.2	39.2	94	37.6	0	0	---	0.00	30.234 
04:45	39.1	39.1	39.1	94	37.5	0	0	---	0.00	30.231 
04:50	39.1	39.1	39.1	94	37.5	0	0	---	0.00	30.231 
04:55	38.9	38.9	38.9	94	37.3	0	0	---	0.00	30.231 
05:00	38.8	38.8	38.8	95	37.5	0	0	---	0.00	30.233 
05:05	38.8	38.8	38.8	95	37.5	0	0	---	0.00	30.233 
05:10	38.6	38.6	38.6	95	37.3	0	0	---	0.00	30.233 
05:15	38.6	38.6	38.6	95	37.3	0	0	---	0.00	30.232 
05:20	38.6	38.6	38.6	95	37.3	0	0	---	0.00	30.232 
05:25	38.6	38.6	38.6	95	37.3	0	0	---	0.00	30.232 
05:30	38.5	38.5	38.5	95	37.2	0	0	---	0.00	30.230 
05:35	38.5	38.5	38.5	95	37.2	0	0	---	0.00	30.230 
05:40	38.5	38.5	38.5	95	37.2	0	0	---	0.00	30.230 
05:45	38.5	38.5	38.5	95	37.2	0	0	---	0.00	30.231 
05:50	38.5	38.5	38.5	95	37.2	0	0	---	0.00	30.231 
05:55	38.5	38.5	38.5	95	37.2	0	0	---	0.00	30.231 
06:00	38.3	38.3	38.3	95	37.0	0	0	---	0.00	30.234 
06:05	38.2	38.2	38.2	95	36.9	0	0	---	0.00	30.234 
06:10	38.2	38.2	38.2	95	36.9	0	0	---	0.00	30.234 
06:15	38.2	38.2	38.2	95	36.9	0	0	---	0.00	30.242 
06:20	38.2	38.2	38.2	95	36.9	0	0	---	0.00	30.242 
06:25	38.2	38.2	38.2	95	36.9	0	0	---	0.00	30.242 
06:30	38.2	38.2	38.2	95	36.9	0	0	---	0.00	30.248 
06:35	38.0	38.0	38.0	95	36.7	0	0	---	0.00	30.248 
06:40	37.9	37.9	37.9	95	36.6	0	0	---	0.00	30.248 
06:45	37.9	37.9	37.9	95	36.6	0	0	---	0.00	30.249 
06:50	37.8	37.8	37.8	95	36.5	0	0	---	0.00	30.249 
06:55	37.6	37.6	37.6	95	36.3	0	0	---	0.00	30.249 
07:00	37.6	37.6	37.6	95	36.3	0	0	---	0.00	30.251 
07:05	37.5	37.5	37.5	95	36.2	0	0	---	0.00	30.251 
07:10	37.5	37.5	37.5	95	36.2	0	0	---	0.00	30.251 
07:15	37.5	37.5	37.5	96	36.5	0	0	---	0.00	30.257 
07:20	37.5	37.5	37.5	96	36.5	0	0	---	0.00	30.257 
07:25	37.3	37.3	37.3	96	36.3	0	0	---	0.00	30.257 
07:30	37.2	37.2	37.2	95	35.9	0	0	---	0.00	30.258 
07:35	37.2	37.2	37.2	96	36.2	0	0	---	0.00	30.258 
07:40	37.0	37.0	37.0	96	36.0	0	0	---	0.00	30.258 
07:45	37.0	37.0	37.0	96	36.0	0	0	---	0.00	30.260 
07:50	37.2	37.2	37.2	96	36.2	0	0	---	0.00	30.260 
07:55	37.0	37.0	37.0	96	36.0	0	0	---	0.00	30.260 
08:00	37.0	37.0	37.0	96	36.0	0	0	---	0.00	30.260 
08:05	37.2	37.2	37.2	96	36.2	0	0	---	0.00	30.260 
08:10	37.2	37.2	37.2	96	36.2	0	0	---	0.00	30.260 
08:15	37.5	37.5	37.5	96	36.5	0	0	---	0.00	30.263 
08:20	37.6	37.6	37.6	96	36.6	0	0	---	0.00	30.263 
08:25	37.9	37.9	37.9	96	36.9	0	0	---	0.00	30.263 
08:30	38.2	38.2	38.2	96	37.2	0	0	---	0.00	30.263 
08:35	38.5	38.5	38.5	96	37.5	0	0	---	0.00	30.263 
08:40	39.1	39.1	39.1	96	38.1	0	0	---	0.00	30.263 
08:45	39.5	39.5	39.5	97	38.7	0	0	---	0.00	30.263 
08:50	40.1	40.1	40.1	97	39.3	0	0	---	0.00	30.263 
08:55	40.9	40.9	40.9	97	40.1	0	1	90	0.00	30.263 
09:00	41.9	41.9	41.9	97	41.1	0	0	---	0.00	30.260 
09:05	42.6	42.6	42.6	97	41.8	0	0	---	0.00	30.260 
09:10	43.2	43.2	43.2	97	42.4	0	1	90	0.00	30.260 
09:15	43.6	43.6	43.6	97	42.8	0	0	---	0.00	30.262 
09:20	44.3	44.3	44.3	98	43.8	0	1	90	0.00	30.262 
09:25	45.2	45.2	45.2	98	44.7	0	1	90	0.00	30.262 
09:30	45.8	45.8	45.8	98	45.3	0	2	90	0.00	30.265 
09:35	46.2	46.2	46.2	98	45.7	0	2	90	0.00	30.265 
09:40	46.7	46.7	46.7	98	46.2	0	2	90	0.00	30.265 
09:45	47.4	47.4	47.4	97	46.6	0	1	90	0.00	30.269 
09:50	48.3	48.3	48.3	97	47.5	0	1	90	0.00	30.269 
09:55	48.9	48.9	48.9	96	47.8	0	1	90	0.00	30.269 
10:00	49.4	49.4	49.4	90	46.6	0	1	90	0.00	30.268 
10:05	50.7	50.7	50.7	82	45.4	0	2	90	0.00	30.268 
10:10	52.2	52.2	52.2	79	45.9	0	1	90	0.00	30.268 
10:15	53.6	53.6	53.6	74	45.5	0	1	90	0.00	30.259 
10:20	54.8	54.8	54.8	71	45.6	0	2	90	0.00	30.259 
10:25	56.0	56.0	56.0	69	46.0	0	2	90	0.00	30.259 
10:30	56.9	56.9	56.9	67	46.1	0	2	90	0.00	30.247 
10:35	57.2	57.2	57.2	66	45.9	0	2	90	0.00	30.247 
10:40	57.5	57.5	57.5	67	46.6	0	2	68	0.00	30.247 
10:45	58.1	58.1	58.1	68	47.6	0	1	68	0.00	30.243 
10:50	58.7	58.7	58.7	64	46.6	0	1	68	0.00	30.243 
10:55	59.2	59.2	59.2	62	46.2	0	2	68	0.00	30.243 
11:00	59.9	59.9	59.9	62	46.8	0	1	68	0.00	30.239 
11:05	60.9	60.9	60.9	58	46.0	0	3	68	0.00	30.239 
11:10	61.5	61.5	61.5	56	45.7	1	3	68	0.00	30.239 
11:15	62.1	62.1	62.1	56	46.2	0	2	68	0.00	30.239 
11:20	62.9	62.9	62.9	53	45.5	0	1	68	0.00	30.239 
11:25	63.2	63.2	63.2	52	45.3	1	2	45	0.00	30.239 
11:30	63.5	63.5	63.5	54	46.6	0	2	45	0.00	30.235 
11:35	63.7	63.7	63.7	51	45.2	1	3	292	0.00	30.235 
11:40	64.0	64.0	64.0	49	44.5	1	3	68	0.00	30.235 
11:45	64.7	64.7	64.7	53	47.2	0	3	90	0.00	30.230 
11:50	65.0	65.0	65.0	48	44.8	0	2	90	0.00	30.230 
11:55	65.3	65.3	65.3	48	45.1	0	2	90	0.00	30.230 
12:00	65.6	65.6	65.6	50	46.5	0	3	292	0.00	30.232 
12:05	66.1	66.1	66.1	50	46.9	1	2	0	0.00	30.232 
12:10	66.3	66.3	66.3	48	46.0	0	1	338	0.00	30.232 
12:15	66.6	66.6	66.6	49	46.8	0	2	338	0.00	30.235 
12:20	66.4	66.4	66.4	46	45.0	0	2	338	0.00	30.235 
12:25	66.6	66.6	66.6	46	45.2	1	2	338	0.00	30.235 
12:30	66.6	66.6	66.6	45	44.6	0	1	338	0.00	30.229 
12:35	66.9	66.9	66.9	44	44.3	1	3	90	0.00	30.229 
12:40	67.4	67.4	67.4	47	46.5	1	2	338	0.00	30.229 
12:45	67.6	67.6	67.6	46	46.1	1	3	338	0.00	30.221 
12:50	67.9	67.9	67.9	45	45.8	1	3	112	0.00	30.221 
12:55	68.3	68.3	68.3	44	45.5	1	2	112	0.00	30.221 
13:00	68.4	68.4	68.4	48	47.9	1	3	112	0.00	30.221 
13:05	68.6	68.6	68.6	44	45.8	1	2	112	0.00	30.221 
13:10	68.8	68.8	68.8	42	44.8	1	3	112	0.00	30.221 
13:15	68.9	68.9	68.9	42	44.9	1	2	248	0.00	30.221 
13:20	69.1	69.1	69.1	45	46.9	1	3	90	0.00	30.221 
13:25	68.9	68.9	68.9	45	46.7	1	4	68	0.00	30.221 
13:30	69.1	69.1	69.1	44	46.3	1	3	90	0.00	30.210 
13:35	69.3	69.3	69.3	47	48.2	0	2	68	0.00	30.210 
13:40	69.6	69.6	69.6	47	48.5	1	3	270	0.00	30.210 
13:45	69.4	69.4	69.4	43	45.9	1	3	158	0.00	30.205 
13:50	69.3	69.3	69.3	44	46.4	1	3	112	0.00	30.205 
13:55	69.4	69.4	69.4	46	47.7	0	2	112	0.00	30.205 
14:00	69.8	69.8	69.8	48	49.2	0	2	68	0.00	30.202 
14:05	69.9	69.9	69.9	44	47.0	1	4	90	0.00	30.202 
14:10	69.9	69.9	69.9	44	47.0	1	3	90	0.00	30.202 
14:15	69.8	69.8	69.8	46	48.1	1	2	90	0.00	30.194 
14:20	69.9	69.9	69.9	51	50.9	0	1	90	0.00	30.194 
14:25	70.4	70.4	70.4	46	48.6	1	3	90	0.00	30.194 
14:30	70.6	70.6	70.6	46	48.8	0	3	90	0.00	30.185 
14:35	70.8	70.8	70.8	46	49.0	0	2	90	0.00	30.185 
14:40	71.1	71.1	71.1	42	46.8	0	2	90	0.00	30.185 
14:45	71.3	71.3	71.3	42	47.0	1	2	90	0.00	30.180 
14:50	71.3	71.3	71.3	43	47.6	1	3	90	0.00	30.180 
14:55	71.5	71.5	71.5	45	49.0	1	4	90	0.00	30.180 
15:00	71.6	71.6	71.6	42	47.3	0	2	90	0.00	30.174 
15:05	71.5	71.5	71.5	43	47.8	1	4	90	0.00	30.174 
15:10	71.3	71.3	71.3	43	47.6	1	4	90	0.00	30.174 
15:15	71.5	71.5	71.5	43	47.8	0	2	90	0.00	30.162 
15:20	71.5	71.5	71.5	42	47.2	0	2	90	0.00	30.162 
15:25	71.6	71.6	71.6	47	50.3	1	2	90	0.00	30.162 
15:30	71.8	71.8	71.8	45	49.3	1	3	90	0.00	30.157 
15:35	72.1	72.1	72.1	46	50.2	1	3	68	0.00	30.157 
15:40	72.3	72.3	72.3	43	48.5	0	1	68	0.00	30.157 
15:45	72.7	72.7	72.7	41	47.6	1	4	68	0.00	30.156 
15:50	72.8	72.8	72.8	46	50.8	1	5	248	0.00	30.156 
15:55	73.2	73.2	73.2	44	50.0	1	5	248	0.00	30.156 
16:00	73.2	73.2	73.2	41	48.1	1	3	90	0.00	30.152 
16:05	73.2	73.2	73.2	44	50.0	1	3	90	0.00	30.152 
16:10	73.3	73.3	73.3	43	49.4	0	2	68	0.00	30.152 
16:15	73.5	73.5	73.5	42	49.0	0	1	68	0.00	30.150 
16:20	73.5	73.5	73.5	46	51.4	0	1	68	0.00	30.150 
16:25	73.5	73.5	73.5	43	49.6	0	1	68	0.00	30.150 
16:30	73.3	73.3	73.3	43	49.4	0	1	68	0.00	30.143 
16:35	73.2	73.2	73.2	42	48.7	1	3	90	0.00	30.143 
16:40	73.0	73.0	73.0	43	49.2	1	3	90	0.00	30.143 
16:45	72.8	72.8	72.8	44	49.6	0	2	90	0.00	30.147 
16:50	72.7	72.7	72.7	43	48.9	0	2	90	0.00	30.147 
16:55	72.7	72.7	72.7	46	50.7	0	1	90	0.00	30.147 
17:00	72.8	72.8	72.8	43	49.0	1	2	90	0.00	30.143 
17:05	73.0	73.0	73.0	45	50.4	0	2	90	0.00	30.143 
17:10	73.0	73.0	73.0	45	50.4	1	3	90	0.00	30.143 
17:15	73.0	73.0	73.0	45	50.4	0	0	---	0.00	30.145 
17:20	72.8	72.8	72.8	44	49.6	0	2	248	0.00	30.145 
17:25	72.8	72.8	72.8	45	50.2	0	1	248	0.00	30.145 
17:30	72.7	72.7	72.7	45	50.1	0	1	248	0.00	30.142 
17:35	72.7	72.7	72.7	47	51.3	0	0	---	0.00	30.142 
17:40	72.5	72.5	72.5	46	50.5	0	2	248	0.00	30.142 
17:45	72.5	72.5	72.5	46	50.5	0	2	315	0.00	30.137 
17:50	72.3	72.3	72.3	46	50.3	0	0	---	0.00	30.137 
17:55	72.3	72.3	72.3	47	50.9	0	2	292	0.00	30.137 
18:00	72.1	72.1	72.1	48	51.3	0	1	292	0.00	30.132 
18:05	72.0	72.0	72.0	49	51.8	0	1	292	0.00	30.132 
18:10	71.8	71.8	71.8	50	52.1	0	1	292	0.00	30.132 
18:15	71.6	71.6	71.6	50	52.0	0	0	---	0.00	30.128 
18:20	71.3	71.3	71.3	50	51.7	0	0	---	0.00	30.128 
18:25	71.1	71.1	71.1	50	51.5	0	1	292	0.00	30.128 
18:30	70.9	70.9	70.9	51	51.9	0	1	292	0.00	30.131 
18:35	70.6	70.6	70.6	51	51.6	0	1	292	0.00	30.131 
18:40	70.4	70.4	70.4	52	51.9	0	0	---	0.00	30.131 
18:45	69.9	69.9	69.9	53	52.0	0	0	---	0.00	30.129 
18:50	69.4	69.4	69.4	54	52.0	0	0	---	0.00	30.129 
18:55	68.9	68.9	68.9	56	52.5	0	0	---	0.00	30.129 
19:00	68.4	68.4	68.4	57	52.6	0	0	---	0.00	30.129 
19:05	67.8	67.8	67.8	58	52.5	0	0	---	0.00	30.129 
19:10	67.3	67.3	67.3	59	52.5	0	0	---	0.00	30.129 
19:15	66.4	66.4	66.4	61	52.5	0	0	---	0.00	30.133 
19:20	65.8	65.8	65.8	65	53.7	0	0	---	0.00	30.133 
19:25	65.2	65.2	65.2	66	53.5	0	0	---	0.00	30.133 
19:30	64.5	64.5	64.5	66	52.9	0	0	---	0.00	30.134 
19:35	63.7	63.7	63.7	69	53.3	0	0	---	0.00	30.134 
19:40	63.2	63.2	63.2	70	53.2	0	0	---	0.00	30.134 
19:45	62.6	62.6	62.6	71	53.1	0	0	---	0.00	30.141 
19:50	62.1	62.1	62.1	72	53.0	0	0	---	0.00	30.141 
19:55	61.8	61.8	61.8	73	53.0	0	0	---	0.00	30.141 
20:00	61.3	61.3	61.3	74	52.9	0	0	---	0.00	30.141 
20:05	60.9	60.9	60.9	76	53.3	0	0	---	0.00	30.141 
20:10	60.4	60.4	60.4	77	53.2	0	0	---	0.00	30.141 
20:15	60.1	60.1	60.1	78	53.2	0	0	---	0.00	30.137 
20:20	59.6	59.6	59.6	79	53.1	0	0	---	0.00	30.137 
20:25	59.3	59.3	59.3	80	53.1	0	0	---	0.00	30.137 
20:30	59.0	59.0	59.0	80	52.8	0	0	---	0.00	30.141 
20:35	58.7	58.7	58.7	81	52.9	0	0	---	0.00	30.141 
20:40	58.4	58.4	58.4	82	52.9	0	0	---	0.00	30.141 
20:45	58.1	58.1	58.1	83	53.0	0	0	---	0.00	30.147 
20:50	57.8	57.8	57.8	84	53.0	0	0	---	0.00	30.147 
20:55	57.6	57.6	57.6	84	52.8	0	0	---	0.00	30.147 
21:00	57.3	57.3	57.3	84	52.5	0	0	---	0.00	30.151 
21:05	57.0	57.0	57.0	84	52.2	0	0	---	0.00	30.151 
21:10	56.9	56.9	56.9	85	52.4	0	0	---	0.00	30.151 
21:15	56.7	56.7	56.7	86	52.6	0	0	---	0.00	30.141 
21:20	56.5	56.5	56.5	86	52.4	0	0	---	0.00	30.141 
21:25	56.3	56.3	56.3	86	52.2	0	0	---	0.00	30.141 
21:30	56.0	56.0	56.0	86	51.9	0	0	---	0.00	30.143 
21:35	55.9	55.9	55.9	86	51.8	0	0	---	0.00	30.143 
21:40	55.6	55.6	55.6	87	51.8	0	0	---	0.00	30.143 
21:45	55.3	55.3	55.3	87	51.5	0	0	---	0.00	30.138 
21:50	55.1	55.1	55.1	88	51.6	0	0	---	0.00	30.138 
21:55	55.0	55.0	55.0	89	51.8	0	0	---	0.00	30.138 
22:00	54.8	54.8	54.8	89	51.6	0	0	---	0.00	30.135 
22:05	54.7	54.7	54.7	89	51.5	0	0	---	0.00	30.135 
22:10	54.5	54.5	54.5	90	51.6	0	0	---	0.00	30.135 
22:15	54.4	54.4	54.4	90	51.5	0	0	---	0.00	30.125 
22:20	54.2	54.2	54.2	90	51.3	0	0	---	0.00	30.125 
22:25	54.2	54.2	54.2	90	51.3	0	0	---	0.00	30.125 
22:30	54.1	54.1	54.1	90	51.2	0	0	---	0.00	30.126 
22:35	54.1	54.1	54.1	91	51.5	0	0	---	0.00	30.126 
22:40	53.9	53.9	53.9	91	51.3	0	0	---	0.00	30.126 
22:45	53.6	53.6	53.6	91	51.0	0	0	---	0.00	30.126 
22:50	53.5	53.5	53.5	92	51.2	0	0	---	0.00	30.126 
22:55	53.3	53.3	53.3	92	51.0	0	0	---	0.00	30.126 
23:00	53.3	53.3	53.3	92	51.0	0	0	---	0.00	30.127 
23:05	53.1	53.1	53.1	92	50.8	0	0	---	0.00	30.127 
23:10	52.9	52.9	52.9	92	50.6	0	0	---	0.00	30.127 
23:15	52.8	52.8	52.8	92	50.5	0	0	---	0.00	30.120 
23:20	52.8	52.8	52.8	93	50.8	0	0	---	0.00	30.120 
23:25	52.6	52.6	52.6	93	50.6	0	0	---	0.00	30.120 
23:30	52.5	52.5	52.5	93	50.5	0	0	---	0.00	30.116 
23:35	52.3	52.3	52.3	93	50.3	0	0	---	0.00	30.116 
23:40	52.2	52.2	52.2	93	50.2	0	0	---	0.00	30.116 
23:45	52.0	52.0	52.0	93	50.0	0	0	---	0.00	30.113 
23:50	51.9	51.9	51.9	93	49.9	0	0	---	0.00	30.113 
23:55	51.9	51.9	51.9	93	49.9	0	0	---	0.00	30.113 

CoCoRaHS
IN-AL-39
A2 Web Hosting
Creative Commons License
GoDaddy
Look for:

loaded 2017-12-13 15:56:38 • last modified 2010-11-18 10:43:29
Privacy PolicyDisclaimer
• wx.awcolley.com is powered by PmWiki v.2002016 •
• all content (unless otherwise noted) © 2017 A W Colley